Currently 66°F in Lake Elsinore, California, USA
66°F
97°F / 56°F
1 mph E
0.00"
Tuesday, June 19, 2018 10:46 PM PDT

Lake Elsinore, California Weather Summary
Last 36 Hours

Temperature Winds Hourly Humidity Dewpoint
Time Report Norm Report Norm Max Gusts Precip. Rpt. Norm Rpt. Norm Pressure
1Tue 10:46 PM  65.8°F  69°F  1 mph E  1 mph  2 mph  0.00"  69%  71%  55°F  59°F  29.99"
Tue 10:00 PM  66.8°F  71°F  2 mph E  2 mph  8 mph  0.00"  66%  67%  55°F  59°F  29.99"
Tue 09:00 PM  69.8°F  74°F  1 mph SE  2 mph  9 mph  0.00"  59%  59%  54°F  58°F  29.98"
Tue 08:00 PM  74.3°F  78°F  2 mph E  3 mph  11 mph  0.00"  51%  50%  54°F  58°F  29.95"
Tue 07:00 PM  80.2°F  84°F  4 mph SE  3 mph  12 mph  0.00"  43%  40%  55°F  57°F  29.92"
Tue 06:00 PM  86.7°F  89°F  7 mph SE  5 mph  15 mph  0.00"  33%  34%  53°F  56°F  29.91"
Tue 05:00 PM  95.3°F  91°F  2 mph W  5 mph  9 mph  0.00"  18%  31%  43°F  56°F  29.90"
Tue 04:00 PM  97.0°F  93°F  1 mph NE  5 mph  11 mph  0.00"  15%  30%  40°F  56°F  29.91"
2Tue 03:05 PM  97.4°F  93°F  4 mph SE  4 mph  10 mph  ----  13%  29%  37°F  55°F  29.92"
Tue 03:00 PM  97.2°F  93°F  2 mph W  3 mph  11 mph  0.00"  13%  29%  37°F  55°F  29.92"
Tue 02:00 PM  95.1°F  92°F  4 mph S  2 mph  10 mph  0.00"  15%  29%  39°F  55°F  29.93"
Tue 01:00 PM  89.9°F  90°F  3 mph S  2 mph  9 mph  0.00"  19%  32%  41°F  55°F  29.94"
Tue 12:00 PM  85.0°F  86°F  calm  2 mph  7 mph  0.00"  28%  37%  47°F  56°F  29.96"
Tue 11:00 AM  79.7°F  82°F  calm  2 mph  8 mph  0.00"  36%  44%  49°F  57°F  29.97"
Tue 10:00 AM  74.5°F  78°F  1 mph SE  2 mph  7 mph  0.00"  44%  53%  50°F  58°F  29.98"
Tue 09:00 AM  71.9°F  72°F  1 mph SW  1 mph  5 mph  0.00"  47%  64%  50°F  59°F  29.99"
Tue 08:00 AM  65.1°F  67°F  calm  1 mph  3 mph  0.00"  64%  77%  52°F  59°F  30.00"
Tue 07:00 AM  58.4°F  61°F  calm  1 mph  2 mph  0.00"  79%  86%  52°F  56°F  30.00"
3Tue 06:03 AM  56.4°F  59°F  calm  calm  none  ----  78%  85%  49°F  54°F  30.00"
Tue 06:00 AM  56.4°F  59°F  calm  calm  3 mph  0.00"  78%  84%  49°F  54°F  30.00"
Tue 05:00 AM  57.1°F  60°F  calm  calm  2 mph  0.00"  76%  83%  49°F  55°F  29.99"
Tue 04:00 AM  58.2°F  61°F  calm  calm  3 mph  0.00"  73%  82%  49°F  55°F  29.99"
Tue 03:00 AM  59.1°F  62°F  calm  calm  2 mph  0.00"  72%  80%  50°F  56°F  29.98"
Tue 02:00 AM  60.2°F  63°F  calm  calm  2 mph  0.00"  70%  79%  50°F  56°F  30.00"
Tue 01:00 AM  61.2°F  65°F  1 mph SW  1 mph  1 mph  0.00"  69%  77%  51°F  57°F  30.00"
Tue 12:00 AM  63.1°F  66°F  calm  1 mph  6 mph  0.00"  68%  75%  52°F  58°F  30.01"
Mon 11:00 PM  64.7°F  68°F  3 mph E  1 mph  8 mph  0.00"  66%  72%  53°F  59°F  30.02"
Mon 10:00 PM  66.9°F  70°F  3 mph E  2 mph  5 mph  0.00"  61%  68%  52°F  59°F  30.02"
Mon 09:00 PM  68.5°F  73°F  3 mph SW  2 mph  9 mph  0.00"  52%  60%  49°F  58°F  30.00"
Mon 08:00 PM  72.1°F  78°F  4 mph SW  3 mph  11 mph  0.00"  45%  51%  49°F  58°F  29.99"
Mon 07:00 PM  75.1°F  84°F  6 mph S  3 mph  16 mph  0.00"  41%  41%  49°F  57°F  29.97"
Mon 06:00 PM  78.7°F  89°F  8 mph SW  5 mph  17 mph  0.00"  36%  35%  49°F  56°F  29.96"
Mon 05:00 PM  82.4°F  91°F  7 mph SW  5 mph  19 mph  0.00"  30%  31%  47°F  56°F  29.96"
Mon 04:00 PM  86.6°F  93°F  3 mph SW  5 mph  14 mph  0.00"  24%  30%  44°F  56°F  29.96"
Mon 03:00 PM  84.0°F  93°F  4 mph S  3 mph  8 mph  0.00"  24%  29%  42°F  55°F  29.97"
Mon 02:00 PM  81.9°F  92°F  3 mph E  2 mph  8 mph  0.00"  28%  29%  44°F  55°F  29.98"
Mon 01:00 PM  78.8°F  89°F  3 mph NE  2 mph  9 mph  0.00"  33%  33%  46°F  55°F  30.00"
Mon 12:00 PM  75.6°F  86°F  5 mph E  2 mph  8 mph  0.00"  37%  37%  46°F  56°F  30.01"
Mon 11:00 AM  71.7°F  82°F  3 mph SE  2 mph  9 mph  0.00"  43%  44%  47°F  57°F  30.03"

  1. Current weather data. No green row appears if the current weather data is also the high or low for the current day.
  2. High temperature for the current day.
  3. Low temperature for the current day.

The Lake Elsinore, California weather pages are a service of WeatherCurrents. Lake Elsinore is located south of Corona and north of the Temecula Valley, in southwestern Riverside County, California.
Copyright ©Tue Jun 19 22:47:11 PDT 2018  WeatherCurrents. All rights reserved. - Submit questions and comments - Privacy Policy

This page automatically refreshes every 10 minutes.